createdAt,value
2022-10-04T00:02:10.442Z,12.29
2022-10-04T00:05:16.160Z,12.26
2022-10-04T00:08:28.666Z,12.26
2022-10-04T00:11:35.799Z,12.30
2022-10-04T00:14:39.640Z,12.21
2022-10-04T00:17:42.085Z,12.22
2022-10-04T00:20:53.641Z,12.29
2022-10-04T00:24:09.291Z,12.14
2022-10-04T00:27:24.891Z,12.23
2022-10-04T00:30:36.341Z,12.22
2022-10-04T00:33:43.672Z,12.19
2022-10-04T00:36:54.314Z,12.25
2022-10-04T00:40:02.902Z,12.20
2022-10-04T00:43:14.013Z,12.36
2022-10-04T00:46:21.066Z,12.23
2022-10-04T00:49:26.166Z,12.33
2022-10-04T00:52:33.801Z,12.21
2022-10-04T00:55:40.229Z,12.11
2022-10-04T00:59:03.903Z,12.07
2022-10-04T01:02:13.241Z,12.19
2022-10-04T01:05:19.886Z,12.08
2022-10-04T01:08:31.344Z,12.05
2022-10-04T01:11:41.530Z,12.08
2022-10-04T01:14:50.176Z,12.11
2022-10-04T01:18:09.768Z,12.28
2022-10-04T01:21:21.536Z,12.13
2022-10-04T01:24:24.317Z,12.07
2022-10-04T01:27:47.020Z,11.99
2022-10-04T01:30:49.563Z,11.96
2022-10-04T01:33:52.597Z,12.09
2022-10-04T01:36:59.368Z,12.04
2022-10-04T01:40:02.266Z,12.00
2022-10-04T01:43:07.313Z,11.97
2022-10-04T01:46:09.873Z,11.98
2022-10-04T01:49:16.456Z,11.97
2022-10-04T01:52:23.903Z,12.00
2022-10-04T01:55:29.590Z,12.05
2022-10-04T01:58:52.611Z,12.08
2022-10-04T02:01:59.345Z,12.07
2022-10-04T02:05:03.077Z,12.09
2022-10-04T02:08:07.775Z,12.03
2022-10-04T02:11:10.406Z,11.99
2022-10-04T02:14:18.498Z,12.01
2022-10-04T02:17:23.311Z,12.03
2022-10-04T02:20:26.689Z,11.93
2022-10-04T02:23:29.492Z,11.92
2022-10-04T02:26:32.396Z,11.95
2022-10-04T02:29:34.955Z,11.97
2022-10-04T02:32:57.759Z,11.98
2022-10-04T02:36:00.500Z,12.00
2022-10-04T02:39:05.123Z,11.98
2022-10-04T02:42:21.771Z,12.05
2022-10-04T02:45:26.999Z,11.98
2022-10-04T02:48:34.215Z,12.11
2022-10-04T02:51:36.539Z,12.02
2022-10-04T02:54:42.119Z,12.00
2022-10-04T02:57:44.860Z,12.03
2022-10-04T03:00:49.922Z,11.99
2022-10-04T03:03:54.150Z,11.95
2022-10-04T03:06:59.091Z,11.93
2022-10-04T03:10:02.883Z,11.86
2022-10-04T03:13:05.400Z,11.93
2022-10-04T03:16:08.406Z,11.86
2022-10-04T03:19:12.358Z,11.87
2022-10-04T03:22:15.122Z,11.88
2022-10-04T03:25:21.344Z,11.84
2022-10-04T03:28:23.877Z,11.82
2022-10-04T03:31:27.855Z,11.83
2022-10-04T03:34:33.030Z,11.99
2022-10-04T03:37:37.633Z,11.83
2022-10-04T03:40:42.191Z,11.79
2022-10-04T03:43:45.738Z,11.81
2022-10-04T03:46:48.728Z,11.83
2022-10-04T03:49:52.378Z,11.75
2022-10-04T03:53:00.015Z,11.76
2022-10-04T03:56:08.523Z,11.72
2022-10-04T03:59:14.093Z,11.76
2022-10-04T04:02:20.952Z,11.86
2022-10-04T04:05:36.698Z,11.80
2022-10-04T04:08:42.268Z,11.80
2022-10-04T04:11:47.887Z,11.79
2022-10-04T04:14:51.475Z,11.80
2022-10-04T04:17:55.140Z,11.71
2022-10-04T04:20:59.396Z,11.79
2022-10-04T04:24:05.325Z,11.76
2022-10-04T04:27:10.500Z,11.74
2022-10-04T04:30:16.983Z,11.75
2022-10-04T04:33:26.895Z,11.77
2022-10-04T04:36:33.403Z,11.82
2022-10-04T04:39:39.830Z,11.85
2022-10-04T04:42:45.609Z,11.93
2022-10-04T04:46:02.931Z,12.02
2022-10-04T04:49:15.232Z,12.02
2022-10-04T04:52:19.662Z,12.09
2022-10-04T04:55:44.689Z,12.17
2022-10-04T04:58:57.286Z,12.19
2022-10-04T05:02:00.019Z,12.29
2022-10-04T05:05:18.930Z,12.34
2022-10-04T05:08:23.113Z,12.34
2022-10-04T05:11:29.524Z,12.47
2022-10-04T05:14:32.462Z,12.52
2022-10-04T05:17:35.161Z,12.68
2022-10-04T05:20:38.034Z,12.73
2022-10-04T05:23:40.293Z,12.79
2022-10-04T05:26:43.123Z,12.95
2022-10-04T05:29:57.770Z,12.90
2022-10-04T05:33:14.638Z,12.96
2022-10-04T05:36:35.480Z,13.11
2022-10-04T05:39:45.109Z,13.29
2022-10-04T05:42:48.138Z,13.19
2022-10-04T05:46:09.636Z,13.25
2022-10-04T05:49:19.005Z,13.29
2022-10-04T05:52:25.188Z,13.37
2022-10-04T05:55:29.011Z,13.49
2022-10-04T05:58:45.724Z,13.51
2022-10-04T06:01:57.105Z,13.60
2022-10-04T06:05:02.505Z,13.62
2022-10-04T06:08:16.974Z,13.68
2022-10-04T06:11:32.110Z,13.73
2022-10-04T06:14:54.910Z,13.86
2022-10-04T06:18:00.655Z,13.93
2022-10-04T06:21:02.801Z,14.01
2022-10-04T06:24:11.210Z,14.21
2022-10-04T06:27:16.285Z,14.48
2022-10-04T06:30:19.614Z,14.48
2022-10-04T06:33:21.785Z,14.67
2022-10-04T06:36:41.129Z,14.81
2022-10-04T06:40:06.484Z,14.79
2022-10-04T06:43:19.704Z,14.80
2022-10-04T06:46:21.989Z,15.00
2022-10-04T06:49:33.575Z,15.05
2022-10-04T06:52:49.851Z,15.16
2022-10-04T06:55:55.442Z,15.20
2022-10-04T06:59:08.079Z,15.33
2022-10-04T07:02:21.123Z,15.51
2022-10-04T07:05:30.532Z,15.64
2022-10-04T07:08:34.167Z,15.84
2022-10-04T07:11:43.526Z,16.22
2022-10-04T07:14:51.984Z,16.35
2022-10-04T07:17:56.425Z,16.32
2022-10-04T07:21:03.208Z,16.23
2022-10-04T07:24:09.069Z,16.27
2022-10-04T07:27:16.372Z,16.64
2022-10-04T07:30:20.721Z,16.52
2022-10-04T07:33:25.065Z,16.33
2022-10-04T07:36:27.305Z,16.39
2022-10-04T07:39:34.610Z,16.57
2022-10-04T07:42:42.871Z,16.84
2022-10-04T07:45:46.451Z,17.58
2022-10-04T07:48:49.349Z,21.71
2022-10-04T07:51:51.992Z,27.86
2022-10-04T07:55:12.667Z,34.63
2022-10-04T07:58:24.368Z,39.97
2022-10-04T08:01:33.704Z,43.11
2022-10-04T08:04:49.015Z,44.58
2022-10-04T08:08:27.090Z,39.69
2022-10-04T08:11:46.578Z,35.19
2022-10-04T08:14:53.539Z,30.51
2022-10-04T08:18:01.358Z,27.12
2022-10-04T08:21:08.312Z,24.89
2022-10-04T08:24:20.525Z,23.48
2022-10-04T08:28:13.580Z,22.50
2022-10-04T08:31:35.331Z,21.88
2022-10-04T08:34:56.591Z,21.12
2022-10-04T08:38:18.347Z,20.62
2022-10-04T08:41:24.292Z,20.24
2022-10-04T08:44:50.427Z,19.86
2022-10-04T08:47:55.891Z,19.71
2022-10-04T08:51:04.679Z,19.49
2022-10-04T08:54:16.371Z,19.50
2022-10-04T08:57:19.269Z,19.63
2022-10-04T09:00:40.051Z,19.60
2022-10-04T09:04:01.844Z,19.77
2022-10-04T09:07:23.623Z,19.88
2022-10-04T09:10:33.109Z,19.90
2022-10-04T09:13:38.116Z,20.51
2022-10-04T09:17:07.847Z,21.13
2022-10-04T09:20:37.694Z,21.76
2022-10-04T09:23:57.900Z,22.73
2022-10-04T09:27:06.299Z,23.38
2022-10-04T09:30:25.148Z,23.69
2022-10-04T09:33:46.293Z,23.70
2022-10-04T09:36:58.362Z,23.11
2022-10-04T09:40:31.590Z,22.36
2022-10-04T09:43:47.885Z,21.79
2022-10-04T09:46:55.683Z,21.57
2022-10-04T09:50:19.013Z,21.41
2022-10-04T09:53:42.268Z,21.36
2022-10-04T09:56:45.308Z,21.22
2022-10-04T10:00:10.367Z,20.89
2022-10-04T10:03:16.039Z,20.62
2022-10-04T10:06:30.719Z,20.34
2022-10-04T10:09:58.848Z,20.08
2022-10-04T10:13:32.007Z,19.71
2022-10-04T10:16:40.672Z,19.50
2022-10-04T10:19:52.843Z,19.40
2022-10-04T10:23:05.345Z,19.42
2022-10-04T10:26:14.334Z,19.59
2022-10-04T10:29:16.895Z,19.65
2022-10-04T10:32:29.196Z,19.79
2022-10-04T10:35:37.677Z,20.19
2022-10-04T10:38:50.844Z,20.62
2022-10-04T10:42:06.769Z,21.25
2022-10-04T10:45:28.123Z,21.52
2022-10-04T10:48:43.895Z,21.70
2022-10-04T10:52:10.897Z,21.84
2022-10-04T10:55:51.544Z,22.55
2022-10-04T10:59:03.302Z,22.84
2022-10-04T11:02:11.705Z,23.69
2022-10-04T11:05:33.254Z,24.33
2022-10-04T11:08:57.074Z,24.82
2022-10-04T11:12:05.453Z,25.04
2022-10-04T11:15:27.031Z,25.61
2022-10-04T11:18:45.878Z,26.09
2022-10-04T11:22:09.415Z,26.38
2022-10-04T11:25:11.944Z,26.58
2022-10-04T11:28:17.090Z,26.48
2022-10-04T11:31:32.345Z,26.15
2022-10-04T11:34:38.290Z,25.63
2022-10-04T11:37:41.488Z,24.96
2022-10-04T11:40:44.064Z,24.12
2022-10-04T11:44:05.164Z,23.62
2022-10-04T11:47:16.057Z,23.23
2022-10-04T11:50:22.626Z,22.81
2022-10-04T11:53:39.255Z,22.42
2022-10-04T11:57:07.234Z,22.05
2022-10-04T12:00:23.945Z,21.68
2022-10-04T12:03:28.167Z,21.45
2022-10-04T12:06:43.382Z,22.06
2022-10-04T12:10:01.938Z,23.37
2022-10-04T12:13:22.868Z,24.04
2022-10-04T12:16:29.876Z,24.32
2022-10-04T12:19:54.181Z,24.67
2022-10-04T12:23:16.325Z,25.24
2022-10-04T12:26:37.328Z,25.60
2022-10-04T12:30:00.165Z,25.93
2022-10-04T12:33:18.088Z,25.96
2022-10-04T12:36:27.370Z,25.72
2022-10-04T12:39:38.971Z,25.67
2022-10-04T12:43:00.167Z,25.61
2022-10-04T12:46:09.870Z,25.60
2022-10-04T12:49:33.633Z,25.25
2022-10-04T12:52:51.352Z,24.98
2022-10-04T12:55:59.875Z,24.95
2022-10-04T12:59:02.353Z,25.12
2022-10-04T13:02:21.276Z,25.08
2022-10-04T13:05:51.236Z,24.97
2022-10-04T13:08:53.704Z,25.39
2022-10-04T13:12:08.476Z,25.88
2022-10-04T13:15:23.113Z,25.97
2022-10-04T13:18:25.814Z,25.87
2022-10-04T13:21:40.414Z,25.57
2022-10-04T13:24:59.504Z,25.46
2022-10-04T13:28:10.894Z,25.25
2022-10-04T13:31:16.563Z,24.85
2022-10-04T13:34:31.483Z,24.64
2022-10-04T13:37:44.987Z,24.44
2022-10-04T13:40:47.482Z,24.31
2022-10-04T13:43:52.684Z,24.16
2022-10-04T13:47:10.628Z,24.07
2022-10-04T13:50:29.717Z,24.02
2022-10-04T13:53:54.499Z,23.84
2022-10-04T13:57:17.197Z,23.57
2022-10-04T14:00:32.224Z,23.26
2022-10-04T14:03:50.013Z,22.97
2022-10-04T14:07:11.699Z,22.67
2022-10-04T14:10:34.766Z,22.44
2022-10-04T14:13:40.702Z,22.15
2022-10-04T14:17:03.343Z,21.81
2022-10-04T14:20:11.633Z,21.51
2022-10-04T14:23:21.225Z,21.18
2022-10-04T14:26:25.283Z,20.88
2022-10-04T14:29:57.519Z,20.58
2022-10-04T14:33:00.111Z,20.40
2022-10-04T14:36:16.069Z,20.07
2022-10-04T14:39:21.339Z,19.86
2022-10-04T14:42:31.324Z,19.64
2022-10-04T14:45:42.760Z,19.41
2022-10-04T14:48:45.891Z,19.17
2022-10-04T14:52:14.401Z,19.02
2022-10-04T14:55:26.328Z,18.87
2022-10-04T14:58:41.409Z,18.76
2022-10-04T15:01:47.700Z,18.50
2022-10-04T15:05:28.610Z,18.46
2022-10-04T15:08:31.287Z,18.34
2022-10-04T15:12:21.717Z,18.16
2022-10-04T15:15:41.697Z,18.06
2022-10-04T15:18:47.100Z,17.84
2022-10-04T15:21:55.436Z,17.63
2022-10-04T15:24:58.326Z,17.54
2022-10-04T15:28:05.910Z,17.53
2022-10-04T15:31:26.973Z,17.51
2022-10-04T15:34:29.812Z,17.37
2022-10-04T15:37:47.420Z,17.29
2022-10-04T15:40:53.139Z,17.12
2022-10-04T15:43:55.386Z,17.04
2022-10-04T15:46:58.046Z,16.95
2022-10-04T15:50:12.337Z,16.89
2022-10-04T15:53:33.543Z,16.88
2022-10-04T15:56:35.993Z,16.84
2022-10-04T15:59:39.122Z,16.82
2022-10-04T16:02:41.434Z,16.66
2022-10-04T16:05:47.203Z,16.72
2022-10-04T16:08:59.604Z,16.59
2022-10-04T16:12:20.244Z,16.52
2022-10-04T16:15:34.506Z,16.43
2022-10-04T16:18:46.926Z,16.41
2022-10-04T16:22:15.980Z,16.32
2022-10-04T16:25:25.333Z,16.27
2022-10-04T16:28:30.600Z,16.13
2022-10-04T16:31:45.736Z,16.08
2022-10-04T16:34:54.441Z,16.02
2022-10-04T16:38:06.521Z,15.91
2022-10-04T16:41:28.079Z,15.86
2022-10-04T16:44:36.941Z,15.86
2022-10-04T16:47:48.251Z,15.69
2022-10-04T16:51:09.730Z,15.63
2022-10-04T16:54:38.530Z,15.63
2022-10-04T16:57:43.420Z,15.45
2022-10-04T17:00:46.545Z,15.40
2022-10-04T17:03:53.159Z,15.27
2022-10-04T17:06:59.899Z,15.21
2022-10-04T17:10:05.579Z,15.18
2022-10-04T17:13:08.132Z,15.13
2022-10-04T17:16:21.886Z,15.12
2022-10-04T17:19:42.632Z,15.07
2022-10-04T17:22:57.481Z,15.00
2022-10-04T17:26:02.695Z,14.96
2022-10-04T17:29:28.717Z,14.91
2022-10-04T17:32:30.925Z,14.86
2022-10-04T17:35:46.473Z,14.85
2022-10-04T17:39:14.327Z,14.79
2022-10-04T17:42:31.910Z,14.80
2022-10-04T17:45:52.695Z,14.73
2022-10-04T17:49:17.205Z,14.64
2022-10-04T17:52:52.787Z,14.59
2022-10-04T17:55:57.102Z,14.56
2022-10-04T17:58:59.648Z,14.53
2022-10-04T18:02:17.842Z,14.50
2022-10-04T18:05:26.964Z,14.45
2022-10-04T18:08:39.416Z,14.43
2022-10-04T18:11:47.374Z,14.36
2022-10-04T18:15:07.237Z,14.33
2022-10-04T18:18:18.846Z,14.29
2022-10-04T18:21:28.859Z,14.25
2022-10-04T18:24:31.506Z,14.21
2022-10-04T18:27:48.487Z,14.19
2022-10-04T18:30:58.817Z,14.16
2022-10-04T18:34:04.440Z,14.15
2022-10-04T18:37:20.710Z,14.14
2022-10-04T18:40:28.544Z,14.15
2022-10-04T18:43:57.648Z,14.11
2022-10-04T18:47:00.601Z,14.07
2022-10-04T18:50:16.400Z,14.03
2022-10-04T18:53:19.724Z,13.98
2022-10-04T18:56:22.822Z,14.00
2022-10-04T18:59:51.071Z,13.95
2022-10-04T19:03:12.388Z,13.90
2022-10-04T19:06:32.884Z,13.81
2022-10-04T19:09:44.556Z,13.76
2022-10-04T19:12:51.578Z,13.76
2022-10-04T19:16:13.970Z,13.74
2022-10-04T19:19:16.462Z,13.74
2022-10-04T19:22:19.012Z,13.69
2022-10-04T19:25:35.351Z,13.66
2022-10-04T19:28:38.707Z,13.60
2022-10-04T19:31:41.191Z,13.59
2022-10-04T19:34:44.477Z,13.58
2022-10-04T19:37:58.348Z,13.53
2022-10-04T19:41:03.586Z,13.50
2022-10-04T19:44:25.149Z,13.47
2022-10-04T19:47:35.247Z,13.46
2022-10-04T19:50:45.247Z,13.43
2022-10-04T19:53:50.140Z,13.36
2022-10-04T19:56:56.088Z,13.31
2022-10-04T19:59:59.679Z,13.30
2022-10-04T20:03:02.771Z,13.24
2022-10-04T20:06:05.716Z,13.18
2022-10-04T20:09:28.792Z,13.16
2022-10-04T20:12:36.003Z,13.16
2022-10-04T20:15:38.634Z,13.13
2022-10-04T20:18:41.970Z,13.08
2022-10-04T20:21:45.359Z,13.07
2022-10-04T20:24:47.845Z,13.03
2022-10-04T20:27:50.281Z,13.03
2022-10-04T20:30:54.060Z,13.03
2022-10-04T20:34:16.442Z,12.97
2022-10-04T20:37:19.327Z,12.89
2022-10-04T20:40:21.687Z,12.83
2022-10-04T20:43:26.048Z,12.77
2022-10-04T20:46:38.112Z,12.73
2022-10-04T20:49:44.261Z,12.72
2022-10-04T20:52:54.355Z,12.70
2022-10-04T20:56:11.828Z,12.66
2022-10-04T20:59:16.033Z,12.63
2022-10-04T21:02:18.928Z,12.59
2022-10-04T21:05:27.228Z,12.59
2022-10-04T21:08:30.036Z,12.59
2022-10-04T21:11:45.994Z,12.56
2022-10-04T21:15:01.484Z,12.55
2022-10-04T21:18:08.452Z,12.52
2022-10-04T21:21:14.619Z,12.48
2022-10-04T21:24:46.571Z,12.45
2022-10-04T21:27:49.078Z,12.40
2022-10-04T21:30:51.825Z,12.33
2022-10-04T21:33:54.451Z,12.25
2022-10-04T21:36:57.004Z,12.21
2022-10-04T21:39:59.725Z,12.19
2022-10-04T21:43:02.149Z,12.19
2022-10-04T21:46:04.971Z,12.22
2022-10-04T21:49:07.513Z,12.21
2022-10-04T21:52:10.240Z,12.19
2022-10-04T21:55:12.684Z,12.17
2022-10-04T21:58:15.262Z,12.16
2022-10-04T22:01:17.755Z,12.10
2022-10-04T22:04:20.293Z,12.09
2022-10-04T22:07:22.840Z,12.08
2022-10-04T22:10:25.774Z,12.06
2022-10-04T22:13:28.268Z,12.03
2022-10-04T22:16:30.985Z,11.98
2022-10-04T22:19:33.787Z,11.98
2022-10-04T22:22:39.776Z,11.93
2022-10-04T22:25:42.487Z,11.89
2022-10-04T22:28:50.183Z,11.84
2022-10-04T22:31:53.063Z,11.80
2022-10-04T22:35:01.821Z,11.77
2022-10-04T22:38:05.845Z,11.76
2022-10-04T22:41:18.918Z,11.72
2022-10-04T22:44:41.655Z,11.70
2022-10-04T22:47:44.479Z,11.65
2022-10-04T22:50:47.091Z,11.63
2022-10-04T22:53:49.652Z,11.61
2022-10-04T22:56:52.881Z,11.59
2022-10-04T22:59:55.903Z,11.55
2022-10-04T23:02:58.687Z,11.52
2022-10-04T23:06:02.147Z,11.57
2022-10-04T23:09:04.606Z,11.58
2022-10-04T23:12:08.678Z,11.58
2022-10-04T23:15:14.690Z,11.56
2022-10-04T23:18:18.186Z,11.55
2022-10-04T23:21:25.090Z,11.54
2022-10-04T23:24:30.282Z,11.50
2022-10-04T23:27:33.990Z,11.47
2022-10-04T23:30:36.496Z,11.46
2022-10-04T23:33:40.391Z,11.40
2022-10-04T23:36:43.220Z,11.39
2022-10-04T23:39:46.032Z,11.36
2022-10-04T23:42:49.608Z,11.34
2022-10-04T23:45:53.564Z,11.34
2022-10-04T23:48:56.248Z,11.33
2022-10-04T23:52:01.459Z,11.30
2022-10-04T23:55:13.989Z,11.28
2022-10-04T23:58:21.023Z,11.33
